sensor_id;sensor_type;location;lat;lon;timestamp;pressure;altitude;pressure_sealevel;temperature;humidity
3544;BME280;1786;52.870;9.578;2022-11-15T00:01:23;100131.22;;;14.02;69.02
3544;BME280;1786;52.870;9.578;2022-11-15T00:04:09;100130.59;;;13.89;69.40
3544;BME280;1786;52.870;9.578;2022-11-15T00:06:55;100123.50;;;13.78;69.48
3544;BME280;1786;52.870;9.578;2022-11-15T00:09:40;100129.09;;;13.75;69.40
3544;BME280;1786;52.870;9.578;2022-11-15T00:12:30;100124.03;;;13.93;69.47
3544;BME280;1786;52.870;9.578;2022-11-15T00:15:15;100127.59;;;13.61;70.23
3544;BME280;1786;52.870;9.578;2022-11-15T00:18:00;100132.91;;;13.29;71.13
3544;BME280;1786;52.870;9.578;2022-11-15T00:20:45;100130.38;;;13.59;70.28
3544;BME280;1786;52.870;9.578;2022-11-15T00:23:32;100133.94;;;13.49;70.57
3544;BME280;1786;52.870;9.578;2022-11-15T00:26:18;100133.16;;;13.58;70.44
3544;BME280;1786;52.870;9.578;2022-11-15T00:29:03;100136.41;;;13.61;69.56
3544;BME280;1786;52.870;9.578;2022-11-15T00:31:49;100135.34;;;13.53;70.21
3544;BME280;1786;52.870;9.578;2022-11-15T00:34:35;100130.63;;;13.56;70.07
3544;BME280;1786;52.870;9.578;2022-11-15T00:37:20;100117.22;;;13.58;69.95
3544;BME280;1786;52.870;9.578;2022-11-15T00:40:06;100120.78;;;13.68;69.73
3544;BME280;1786;52.870;9.578;2022-11-15T00:42:51;100127.00;;;13.57;69.82
3544;BME280;1786;52.870;9.578;2022-11-15T00:45:37;100126.09;;;13.47;70.19
3544;BME280;1786;52.870;9.578;2022-11-15T00:48:22;100119.88;;;13.26;71.63
3544;BME280;1786;52.870;9.578;2022-11-15T00:51:07;100120.25;;;13.10;71.76
3544;BME280;1786;52.870;9.578;2022-11-15T00:53:52;100108.66;;;13.33;71.02
3544;BME280;1786;52.870;9.578;2022-11-15T00:56:38;100110.75;;;13.51;70.46
3544;BME280;1786;52.870;9.578;2022-11-15T00:59:23;100114.38;;;13.50;70.58
3544;BME280;1786;52.870;9.578;2022-11-15T01:02:08;100119.41;;;13.53;69.98
3544;BME280;1786;52.870;9.578;2022-11-15T01:04:54;100111.88;;;13.37;70.30
3544;BME280;1786;52.870;9.578;2022-11-15T01:07:39;100115.94;;;13.09;71.20
3544;BME280;1786;52.870;9.578;2022-11-15T01:10:25;100110.75;;;12.52;72.93
3544;BME280;1786;52.870;9.578;2022-11-15T01:13:10;100104.69;;;12.62;72.75
3544;BME280;1786;52.870;9.578;2022-11-15T01:15:56;100098.06;;;12.56;73.33
3544;BME280;1786;52.870;9.578;2022-11-15T01:18:41;100092.09;;;12.97;71.66
3544;BME280;1786;52.870;9.578;2022-11-15T01:21:26;100092.19;;;13.07;71.37
3544;BME280;1786;52.870;9.578;2022-11-15T01:24:12;100097.94;;;12.69;71.91
3544;BME280;1786;52.870;9.578;2022-11-15T01:26:58;100103.13;;;12.70;72.57
3544;BME280;1786;52.870;9.578;2022-11-15T01:29:43;100103.28;;;12.58;73.15
3544;BME280;1786;52.870;9.578;2022-11-15T01:32:29;100102.03;;;12.62;73.00
3544;BME280;1786;52.870;9.578;2022-11-15T01:35:14;100097.09;;;12.68;73.18
3544;BME280;1786;52.870;9.578;2022-11-15T01:37:59;100101.28;;;12.93;72.14
3544;BME280;1786;52.870;9.578;2022-11-15T01:40:45;100097.94;;;12.69;72.72
3544;BME280;1786;52.870;9.578;2022-11-15T01:43:36;100096.69;;;12.84;72.37
3544;BME280;1786;52.870;9.578;2022-11-15T01:49:13;100088.75;;;12.95;72.19
3544;BME280;1786;52.870;9.578;2022-11-15T01:52:01;100088.75;;;12.95;73.02
3544;BME280;1786;52.870;9.578;2022-11-15T01:57:51;100090.53;;;13.38;71.97
3544;BME280;1786;52.870;9.578;2022-11-15T02:00:38;100090.63;;;13.48;71.52
3544;BME280;1786;52.870;9.578;2022-11-15T02:03:33;100086.53;;;13.65;70.86
3544;BME280;1786;52.870;9.578;2022-11-15T02:06:21;100090.47;;;13.71;70.61
3544;BME280;1786;52.870;9.578;2022-11-15T02:09:07;100083.47;;;13.91;70.41
3544;BME280;1786;52.870;9.578;2022-11-15T02:11:53;100074.13;;;13.87;70.66
3544;BME280;1786;52.870;9.578;2022-11-15T02:14:41;100087.56;;;13.95;70.71
3544;BME280;1786;52.870;9.578;2022-11-15T02:20:53;100088.59;;;13.82;70.81
3544;BME280;1786;52.870;9.578;2022-11-15T02:23:53;100076.69;;;13.77;71.21
3544;BME280;1786;52.870;9.578;2022-11-15T02:26:57;100070.69;;;14.05;70.05
3544;BME280;1786;52.870;9.578;2022-11-15T02:30:04;100064.56;;;14.45;68.94
3544;BME280;1786;52.870;9.578;2022-11-15T02:36:01;100061.56;;;14.19;70.00
3544;BME280;1786;52.870;9.578;2022-11-15T02:39:04;100059.16;;;14.16;69.76
3544;BME280;1786;52.870;9.578;2022-11-15T02:41:55;100051.81;;;13.99;70.15
3544;BME280;1786;52.870;9.578;2022-11-15T02:44:45;100057.38;;;13.96;70.65
3544;BME280;1786;52.870;9.578;2022-11-15T02:47:35;100044.13;;;13.75;71.23
3544;BME280;1786;52.870;9.578;2022-11-15T02:50:25;100036.13;;;13.96;70.82
3544;BME280;1786;52.870;9.578;2022-11-15T02:53:14;100043.81;;;14.29;69.91
3544;BME280;1786;52.870;9.578;2022-11-15T02:56:00;100030.69;;;14.38;69.76
3544;BME280;1786;52.870;9.578;2022-11-15T02:59:00;100028.00;;;14.28;69.69
3544;BME280;1786;52.870;9.578;2022-11-15T03:02:03;100031.84;;;14.45;70.08
3544;BME280;1786;52.870;9.578;2022-11-15T03:04:56;100025.47;;;14.57;68.98
3544;BME280;1786;52.870;9.578;2022-11-15T03:07:54;100030.78;;;14.57;69.44
3544;BME280;1786;52.870;9.578;2022-11-15T03:13:59;100031.25;;;15.01;68.44
3544;BME280;1786;52.870;9.578;2022-11-15T03:17:09;100026.91;;;15.29;67.98
3544;BME280;1786;52.870;9.578;2022-11-15T03:19:59;100023.28;;;15.40;67.22
3544;BME280;1786;52.870;9.578;2022-11-15T03:22:47;100033.03;;;15.49;67.37
3544;BME280;1786;52.870;9.578;2022-11-15T03:25:34;100033.03;;;15.59;66.85
3544;BME280;1786;52.870;9.578;2022-11-15T03:28:27;100025.47;;;15.74;66.85
3544;BME280;1786;52.870;9.578;2022-11-15T03:31:16;100026.88;;;15.78;66.52
3544;BME280;1786;52.870;9.578;2022-11-15T03:34:29;100030.91;;;15.82;66.72
3544;BME280;1786;52.870;9.578;2022-11-15T03:37:17;100034.44;;;15.73;66.59
3544;BME280;1786;52.870;9.578;2022-11-15T03:40:06;100033.44;;;15.64;67.21
3544;BME280;1786;52.870;9.578;2022-11-15T03:43:03;100030.25;;;15.61;67.54
3544;BME280;1786;52.870;9.578;2022-11-15T03:46:02;100031.91;;;15.62;67.67
3544;BME280;1786;52.870;9.578;2022-11-15T03:48:53;100016.00;;;15.42;68.14
3544;BME280;1786;52.870;9.578;2022-11-15T03:51:39;100032.78;;;15.52;68.12
3544;BME280;1786;52.870;9.578;2022-11-15T03:54:25;100028.94;;;15.65;67.91
3544;BME280;1786;52.870;9.578;2022-11-15T03:57:11;100031.03;;;15.90;67.32
3544;BME280;1786;52.870;9.578;2022-11-15T03:59:56;100027.16;;;16.12;66.47
3544;BME280;1786;52.870;9.578;2022-11-15T04:02:42;100032.47;;;16.12;66.53
3544;BME280;1786;52.870;9.578;2022-11-15T04:05:27;100031.06;;;16.18;66.47
3544;BME280;1786;52.870;9.578;2022-11-15T04:08:12;100031.72;;;16.30;66.19
3544;BME280;1786;52.870;9.578;2022-11-15T04:10:58;100027.50;;;16.27;66.90
3544;BME280;1786;52.870;9.578;2022-11-15T04:13:46;100028.41;;;16.18;66.50
3544;BME280;1786;52.870;9.578;2022-11-15T04:16:31;100024.53;;;16.30;67.10
3544;BME280;1786;52.870;9.578;2022-11-15T04:19:16;100032.75;;;16.19;67.62
3544;BME280;1786;52.870;9.578;2022-11-15T04:22:20;100020.91;;;15.94;68.36
3544;BME280;1786;52.870;9.578;2022-11-15T04:25:24;100020.53;;;15.89;68.87
3544;BME280;1786;52.870;9.578;2022-11-15T04:28:16;100023.81;;;15.73;69.73
3544;BME280;1786;52.870;9.578;2022-11-15T04:31:01;100018.69;;;15.89;69.83
3544;BME280;1786;52.870;9.578;2022-11-15T04:33:46;100017.22;;;16.05;69.12
3544;BME280;1786;52.870;9.578;2022-11-15T04:36:31;100024.66;;;16.11;69.15
3544;BME280;1786;52.870;9.578;2022-11-15T04:39:35;100015.19;;;16.26;68.82
3544;BME280;1786;52.870;9.578;2022-11-15T04:42:21;100026.03;;;16.42;68.46
3544;BME280;1786;52.870;9.578;2022-11-15T04:45:06;100023.09;;;16.46;68.45
3544;BME280;1786;52.870;9.578;2022-11-15T04:47:51;100011.91;;;16.32;68.66
3544;BME280;1786;52.870;9.578;2022-11-15T04:50:37;100012.66;;;16.25;69.54
3544;BME280;1786;52.870;9.578;2022-11-15T04:53:22;100023.41;;;16.33;69.05
3544;BME280;1786;52.870;9.578;2022-11-15T04:56:08;100022.28;;;16.35;69.17
3544;BME280;1786;52.870;9.578;2022-11-15T04:58:54;100023.22;;;16.44;69.07
3544;BME280;1786;52.870;9.578;2022-11-15T05:01:39;100025.53;;;16.29;69.94
3544;BME280;1786;52.870;9.578;2022-11-15T05:04:29;100024.16;;;16.25;69.54
3544;BME280;1786;52.870;9.578;2022-11-15T05:07:14;100023.22;;;16.16;69.89
3544;BME280;1786;52.870;9.578;2022-11-15T05:09:59;100026.03;;;16.15;70.20
3544;BME280;1786;52.870;9.578;2022-11-15T05:12:46;100022.59;;;15.95;70.85
3544;BME280;1786;52.870;9.578;2022-11-15T05:15:31;100022.00;;;16.11;70.33
3544;BME280;1786;52.870;9.578;2022-11-15T05:18:17;100027.88;;;16.05;70.51
3544;BME280;1786;52.870;9.578;2022-11-15T05:21:10;100016.75;;;15.62;71.56
3544;BME280;1786;52.870;9.578;2022-11-15T05:23:56;100016.53;;;15.26;72.97
3544;BME280;1786;52.870;9.578;2022-11-15T05:26:41;100025.75;;;15.61;72.01
3544;BME280;1786;52.870;9.578;2022-11-15T05:29:27;100021.41;;;15.60;71.44
3544;BME280;1786;52.870;9.578;2022-11-15T05:32:12;100032.19;;;15.68;71.88
3544;BME280;1786;52.870;9.578;2022-11-15T05:34:58;100021.88;;;15.36;72.52
3544;BME280;1786;52.870;9.578;2022-11-15T05:37:44;100020.44;;;15.71;71.85
3544;BME280;1786;52.870;9.578;2022-11-15T05:40:30;100023.50;;;15.76;71.58
3544;BME280;1786;52.870;9.578;2022-11-15T05:43:16;100017.44;;;15.93;70.95
3544;BME280;1786;52.870;9.578;2022-11-15T05:46:03;100024.78;;;16.09;71.04
3544;BME280;1786;52.870;9.578;2022-11-15T05:48:50;100029.53;;;15.78;71.30
3544;BME280;1786;52.870;9.578;2022-11-15T05:51:36;100028.91;;;15.94;70.85
3544;BME280;1786;52.870;9.578;2022-11-15T05:54:22;100033.78;;;16.08;70.59
3544;BME280;1786;52.870;9.578;2022-11-15T05:57:08;100027.69;;;15.88;71.11
3544;BME280;1786;52.870;9.578;2022-11-15T05:59:54;100029.25;;;16.18;70.31
3544;BME280;1786;52.870;9.578;2022-11-15T06:02:40;100027.31;;;16.11;70.72
3544;BME280;1786;52.870;9.578;2022-11-15T06:05:25;100022.47;;;16.24;70.16
3544;BME280;1786;52.870;9.578;2022-11-15T06:08:12;100030.59;;;16.22;70.23
3544;BME280;1786;52.870;9.578;2022-11-15T06:11:03;100031.19;;;16.26;70.13
3544;BME280;1786;52.870;9.578;2022-11-15T06:13:49;100031.66;;;16.12;70.39
3544;BME280;1786;52.870;9.578;2022-11-15T06:16:35;100037.28;;;16.09;70.44
3544;BME280;1786;52.870;9.578;2022-11-15T06:19:20;100039.06;;;16.18;70.36
3544;BME280;1786;52.870;9.578;2022-11-15T06:22:05;100039.56;;;16.31;70.01
3544;BME280;1786;52.870;9.578;2022-11-15T06:24:51;100046.56;;;16.32;70.28
3544;BME280;1786;52.870;9.578;2022-11-15T06:27:36;100042.94;;;16.33;70.27
3544;BME280;1786;52.870;9.578;2022-11-15T06:30:22;100044.09;;;16.21;70.29
3544;BME280;1786;52.870;9.578;2022-11-15T06:33:08;100041.75;;;16.18;70.18
3544;BME280;1786;52.870;9.578;2022-11-15T06:35:53;100039.97;;;15.99;70.91
3544;BME280;1786;52.870;9.578;2022-11-15T06:38:39;100040.22;;;16.15;70.41
3544;BME280;1786;52.870;9.578;2022-11-15T06:41:24;100042.53;;;16.28;70.13
3544;BME280;1786;52.870;9.578;2022-11-15T06:44:10;100045.19;;;16.28;69.74
3544;BME280;1786;52.870;9.578;2022-11-15T06:46:55;100048.53;;;16.30;69.44
3544;BME280;1786;52.870;9.578;2022-11-15T06:49:41;100047.16;;;16.26;69.93
3544;BME280;1786;52.870;9.578;2022-11-15T06:52:26;100045.00;;;16.02;70.68
3544;BME280;1786;52.870;9.578;2022-11-15T06:55:17;100055.00;;;16.28;70.16
3544;BME280;1786;52.870;9.578;2022-11-15T06:58:02;100056.72;;;16.19;70.34
3544;BME280;1786;52.870;9.578;2022-11-15T07:00:48;100055.25;;;16.34;69.85
3544;BME280;1786;52.870;9.578;2022-11-15T07:03:41;100064.25;;;16.33;69.92
3544;BME280;1786;52.870;9.578;2022-11-15T07:06:26;100067.94;;;16.22;70.22
3544;BME280;1786;52.870;9.578;2022-11-15T07:09:12;100075.25;;;23.50;52.62
3544;BME280;1786;52.870;9.578;2022-11-15T07:11:57;100123.19;;;34.70;35.35
3544;BME280;1786;52.870;9.578;2022-11-15T07:14:48;100139.38;;;36.11;33.00
3544;BME280;1786;52.870;9.578;2022-11-15T07:17:34;100153.66;;;37.49;31.49
3544;BME280;1786;52.870;9.578;2022-11-15T07:20:20;100133.22;;;37.15;31.87
3544;BME280;1786;52.870;9.578;2022-11-15T07:23:05;100136.78;;;37.16;31.25
3544;BME280;1786;52.870;9.578;2022-11-15T07:25:50;100115.84;;;34.86;33.61
3544;BME280;1786;52.870;9.578;2022-11-15T07:28:35;100118.06;;;33.02;35.26
3544;BME280;1786;52.870;9.578;2022-11-15T07:31:21;100113.94;;;33.91;34.33
3544;BME280;1786;52.870;9.578;2022-11-15T07:34:07;100117.34;;;35.91;32.43
3544;BME280;1786;52.870;9.578;2022-11-15T07:36:53;100097.41;;;34.71;33.27
3544;BME280;1786;52.870;9.578;2022-11-15T07:39:38;100101.59;;;33.56;34.84
3544;BME280;1786;52.870;9.578;2022-11-15T07:42:23;100109.63;;;36.03;31.90
3544;BME280;1786;52.870;9.578;2022-11-15T07:45:27;100116.31;;;37.66;31.22
3544;BME280;1786;52.870;9.578;2022-11-15T07:48:13;100113.78;;;38.77;29.75
3544;BME280;1786;52.870;9.578;2022-11-15T07:50:58;100114.34;;;41.20;28.32
3544;BME280;1786;52.870;9.578;2022-11-15T07:53:44;100118.66;;;42.34;27.59
3544;BME280;1786;52.870;9.578;2022-11-15T07:56:29;100116.13;;;42.06;27.06
3544;BME280;1786;52.870;9.578;2022-11-15T07:59:14;100081.53;;;32.69;35.03
3544;BME280;1786;52.870;9.578;2022-11-15T08:02:00;100065.22;;;27.71;42.14
3544;BME280;1786;52.870;9.578;2022-11-15T08:04:45;100055.19;;;26.18;44.83
3544;BME280;1786;52.870;9.578;2022-11-15T08:07:31;100051.69;;;25.18;46.14
3544;BME280;1786;52.870;9.578;2022-11-15T08:10:17;100047.53;;;25.62;45.72
3544;BME280;1786;52.870;9.578;2022-11-15T08:13:09;100052.03;;;25.15;46.85
3544;BME280;1786;52.870;9.578;2022-11-15T08:15:59;100048.09;;;24.97;47.34
3544;BME280;1786;52.870;9.578;2022-11-15T08:18:44;100051.78;;;24.83;47.41
3544;BME280;1786;52.870;9.578;2022-11-15T08:21:30;100046.00;;;24.93;47.71
3544;BME280;1786;52.870;9.578;2022-11-15T08:24:15;100042.44;;;24.37;48.21
3544;BME280;1786;52.870;9.578;2022-11-15T08:27:00;100040.03;;;23.80;49.27
3544;BME280;1786;52.870;9.578;2022-11-15T08:29:48;100039.94;;;24.36;49.13
3544;BME280;1786;52.870;9.578;2022-11-15T08:32:33;100052.97;;;24.60;48.48
3544;BME280;1786;52.870;9.578;2022-11-15T08:35:20;100052.09;;;24.18;49.50
3544;BME280;1786;52.870;9.578;2022-11-15T08:38:12;100053.25;;;24.44;48.67
3544;BME280;1786;52.870;9.578;2022-11-15T08:41:03;100048.66;;;24.38;49.25
3544;BME280;1786;52.870;9.578;2022-11-15T08:43:48;100054.84;;;24.67;48.38
3544;BME280;1786;52.870;9.578;2022-11-15T08:46:34;100052.22;;;24.04;49.92
3544;BME280;1786;52.870;9.578;2022-11-15T08:49:19;100054.97;;;24.45;49.42
3544;BME280;1786;52.870;9.578;2022-11-15T08:52:05;100057.59;;;24.38;49.59
3544;BME280;1786;52.870;9.578;2022-11-15T08:54:50;100060.28;;;24.32;49.90
3544;BME280;1786;52.870;9.578;2022-11-15T08:57:36;100059.88;;;24.00;50.66
3544;BME280;1786;52.870;9.578;2022-11-15T09:00:21;100050.81;;;23.58;50.50
3544;BME280;1786;52.870;9.578;2022-11-15T09:03:07;100047.44;;;23.28;51.68
3544;BME280;1786;52.870;9.578;2022-11-15T09:05:55;100050.03;;;23.86;50.82
3544;BME280;1786;52.870;9.578;2022-11-15T09:08:41;100054.28;;;23.73;50.66
3544;BME280;1786;52.870;9.578;2022-11-15T09:11:34;100048.84;;;23.45;51.26
3544;BME280;1786;52.870;9.578;2022-11-15T09:14:19;100054.53;;;23.79;50.81
3544;BME280;1786;52.870;9.578;2022-11-15T09:17:07;100062.00;;;23.77;50.26
3544;BME280;1786;52.870;9.578;2022-11-15T09:19:53;100056.88;;;23.88;50.45
3544;BME280;1786;52.870;9.578;2022-11-15T09:22:38;100060.22;;;23.41;51.06
3544;BME280;1786;52.870;9.578;2022-11-15T09:25:24;100060.22;;;23.41;51.00
3544;BME280;1786;52.870;9.578;2022-11-15T09:28:09;100048.81;;;23.39;51.46
3544;BME280;1786;52.870;9.578;2022-11-15T09:30:59;100055.16;;;23.74;50.79
3544;BME280;1786;52.870;9.578;2022-11-15T09:33:45;100056.97;;;23.73;50.90
3544;BME280;1786;52.870;9.578;2022-11-15T09:36:31;100054.06;;;23.47;51.56
3544;BME280;1786;52.870;9.578;2022-11-15T09:39:16;100063.50;;;23.36;50.84
3544;BME280;1786;52.870;9.578;2022-11-15T09:45:23;100061.50;;;23.66;50.61
3544;BME280;1786;52.870;9.578;2022-11-15T09:48:42;100058.56;;;23.40;51.18
3544;BME280;1786;52.870;9.578;2022-11-15T09:51:34;100058.78;;;24.23;49.97
3544;BME280;1786;52.870;9.578;2022-11-15T09:56:56;100052.47;;;23.81;50.67
3544;BME280;1786;52.870;9.578;2022-11-15T10:04:44;100042.13;;;24.54;49.28
3544;BME280;1786;52.870;9.578;2022-11-15T10:12:24;100039.13;;;24.90;48.81
3544;BME280;1786;52.870;9.578;2022-11-15T10:15:02;100035.63;;;25.03;48.95
3544;BME280;1786;52.870;9.578;2022-11-15T10:20:27;100033.59;;;25.52;47.32
3544;BME280;1786;52.870;9.578;2022-11-15T10:22:58;100039.84;;;25.59;47.52
3544;BME280;1786;52.870;9.578;2022-11-15T10:25:28;100025.50;;;25.38;47.62
3544;BME280;1786;52.870;9.578;2022-11-15T10:27:59;100030.91;;;25.52;47.50
3544;BME280;1786;52.870;9.578;2022-11-15T10:30:38;100030.59;;;24.93;48.79
3544;BME280;1786;52.870;9.578;2022-11-15T10:33:13;100016.66;;;26.16;47.26
3544;BME280;1786;52.870;9.578;2022-11-15T10:35:43;100017.69;;;26.22;46.24
3544;BME280;1786;52.870;9.578;2022-11-15T10:38:11;100024.75;;;26.29;45.96
3544;BME280;1786;52.870;9.578;2022-11-15T10:40:41;100018.81;;;26.46;46.28
3544;BME280;1786;52.870;9.578;2022-11-15T10:43:15;100010.97;;;26.83;45.38
3544;BME280;1786;52.870;9.578;2022-11-15T10:45:42;100006.28;;;26.58;46.00
3544;BME280;1786;52.870;9.578;2022-11-15T10:50:40;100005.31;;;27.16;45.63
3544;BME280;1786;52.870;9.578;2022-11-15T10:53:28;99997.25;;;27.09;44.89
3544;BME280;1786;52.870;9.578;2022-11-15T10:56:01;100007.31;;;26.95;45.37
3544;BME280;1786;52.870;9.578;2022-11-15T10:58:36;99999.41;;;27.26;45.04
3544;BME280;1786;52.870;9.578;2022-11-15T11:03:37;100000.38;;;27.38;45.91
3544;BME280;1786;52.870;9.578;2022-11-15T11:08:34;99993.72;;;27.34;45.45
3544;BME280;1786;52.870;9.578;2022-11-15T11:11:03;99984.03;;;27.88;45.36
3544;BME280;1786;52.870;9.578;2022-11-15T11:13:39;99981.78;;;27.10;45.71
3544;BME280;1786;52.870;9.578;2022-11-15T11:21:34;99979.69;;;25.57;48.82
3544;BME280;1786;52.870;9.578;2022-11-15T11:24:15;99970.94;;;25.68;48.22
3544;BME280;1786;52.870;9.578;2022-11-15T11:27:39;99972.22;;;25.45;48.82
3544;BME280;1786;52.870;9.578;2022-11-15T11:30:20;99971.13;;;25.86;47.97
3544;BME280;1786;52.870;9.578;2022-11-15T11:36:03;99956.19;;;25.11;49.43
3544;BME280;1786;52.870;9.578;2022-11-15T11:43:50;99952.88;;;25.29;49.69
3544;BME280;1786;52.870;9.578;2022-11-15T11:46:59;99939.47;;;25.80;48.49
3544;BME280;1786;52.870;9.578;2022-11-15T11:49:37;99933.94;;;25.48;48.69
3544;BME280;1786;52.870;9.578;2022-11-15T11:52:13;99938.41;;;26.40;47.82
3544;BME280;1786;52.870;9.578;2022-11-15T11:57:59;99933.84;;;25.75;48.17
3544;BME280;1786;52.870;9.578;2022-11-15T12:00:21;99940.16;;;25.56;48.50
3544;BME280;1786;52.870;9.578;2022-11-15T12:03:16;99947.97;;;26.04;48.15
3544;BME280;1786;52.870;9.578;2022-11-15T12:05:51;99934.13;;;25.47;48.22
3544;BME280;1786;52.870;9.578;2022-11-15T12:08:25;99933.06;;;25.55;48.50
3544;BME280;1786;52.870;9.578;2022-11-15T12:11:13;99927.25;;;25.44;48.84
3544;BME280;1786;52.870;9.578;2022-11-15T12:13:42;99930.75;;;25.72;48.02
3544;BME280;1786;52.870;9.578;2022-11-15T12:16:30;99930.31;;;25.75;49.00
3544;BME280;1786;52.870;9.578;2022-11-15T12:19:03;99913.25;;;25.74;48.00
3544;BME280;1786;52.870;9.578;2022-11-15T12:21:45;99914.31;;;26.25;47.51
3544;BME280;1786;52.870;9.578;2022-11-15T12:24:26;99916.28;;;26.49;46.43
3544;BME280;1786;52.870;9.578;2022-11-15T12:27:03;99906.56;;;25.83;47.30
3544;BME280;1786;52.870;9.578;2022-11-15T12:29:36;99895.75;;;25.83;47.43
3544;BME280;1786;52.870;9.578;2022-11-15T12:32:33;99896.59;;;25.77;48.03
3544;BME280;1786;52.870;9.578;2022-11-15T12:35:01;99903.78;;;26.10;46.87
3544;BME280;1786;52.870;9.578;2022-11-15T12:40:17;99898.09;;;26.18;46.78
3544;BME280;1786;52.870;9.578;2022-11-15T12:45:43;99889.34;;;25.71;47.64
3544;BME280;1786;52.870;9.578;2022-11-15T12:58:44;99865.44;;;24.35;49.48
3544;BME280;1786;52.870;9.578;2022-11-15T13:06:48;99867.88;;;24.10;50.57
3544;BME280;1786;52.870;9.578;2022-11-15T13:15:45;99851.75;;;24.43;49.75
3544;BME280;1786;52.870;9.578;2022-11-15T13:17:49;99848.28;;;24.76;48.91
3544;BME280;1786;52.870;9.578;2022-11-15T13:20:17;99850.97;;;25.02;48.49
3544;BME280;1786;52.870;9.578;2022-11-15T13:31:19;99853.66;;;23.81;50.00
3544;BME280;1786;52.870;9.578;2022-11-15T13:33:47;99847.75;;;24.12;50.15
3544;BME280;1786;52.870;9.578;2022-11-15T13:36:28;99848.56;;;24.13;49.82
3544;BME280;1786;52.870;9.578;2022-11-15T13:39:02;99838.91;;;24.58;49.64
3544;BME280;1786;52.870;9.578;2022-11-15T13:41:32;99842.00;;;24.42;49.58
3544;BME280;1786;52.870;9.578;2022-11-15T13:44:00;99837.16;;;24.17;49.67
3544;BME280;1786;52.870;9.578;2022-11-15T13:54:05;99823.50;;;24.32;49.68
3544;BME280;1786;52.870;9.578;2022-11-15T13:56:35;99811.03;;;24.38;49.36
3544;BME280;1786;52.870;9.578;2022-11-15T13:59:23;99830.44;;;23.87;49.89
3544;BME280;1786;52.870;9.578;2022-11-15T14:01:51;99821.31;;;23.88;50.00
3544;BME280;1786;52.870;9.578;2022-11-15T14:04:22;99822.13;;;23.88;49.76
3544;BME280;1786;52.870;9.578;2022-11-15T14:06:53;99819.09;;;23.57;50.18
3544;BME280;1786;52.870;9.578;2022-11-15T14:09:36;99821.44;;;24.54;48.90
3544;BME280;1786;52.870;9.578;2022-11-15T14:12:32;99822.03;;;24.43;49.14
3544;BME280;1786;52.870;9.578;2022-11-15T14:15:02;99826.44;;;24.71;48.01
3544;BME280;1786;52.870;9.578;2022-11-15T14:19:56;99833.50;;;25.25;47.88
3544;BME280;1786;52.870;9.578;2022-11-15T14:27:43;99820.84;;;24.92;47.59
3544;BME280;1786;52.870;9.578;2022-11-15T14:30:15;99823.72;;;25.17;47.63
3544;BME280;1786;52.870;9.578;2022-11-15T14:32:48;99820.56;;;25.14;47.84
3544;BME280;1786;52.870;9.578;2022-11-15T14:35:21;99811.47;;;24.48;48.63
3544;BME280;1786;52.870;9.578;2022-11-15T14:37:48;99820.41;;;24.69;47.70
3544;BME280;1786;52.870;9.578;2022-11-15T14:40:21;99812.31;;;24.55;48.34
3544;BME280;1786;52.870;9.578;2022-11-15T14:42:49;99817.94;;;24.47;48.64
3544;BME280;1786;52.870;9.578;2022-11-15T14:45:18;99817.47;;;25.10;47.26
3544;BME280;1786;52.870;9.578;2022-11-15T14:47:45;99825.09;;;25.40;46.74
3544;BME280;1786;52.870;9.578;2022-11-15T14:50:13;99824.34;;;24.79;47.83
3544;BME280;1786;52.870;9.578;2022-11-15T14:52:40;99812.34;;;24.62;48.78
3544;BME280;1786;52.870;9.578;2022-11-15T14:57:41;99807.13;;;24.54;48.53
3544;BME280;1786;52.870;9.578;2022-11-15T15:00:08;99811.69;;;24.73;48.29
3544;BME280;1786;52.870;9.578;2022-11-15T15:02:39;99813.53;;;24.86;47.82
3544;BME280;1786;52.870;9.578;2022-11-15T15:07:47;99811.69;;;25.65;47.01
3544;BME280;1786;52.870;9.578;2022-11-15T15:10:15;99809.06;;;25.52;46.36
3544;BME280;1786;52.870;9.578;2022-11-15T15:13:02;99799.03;;;24.67;47.97
3544;BME280;1786;52.870;9.578;2022-11-15T15:15:36;99801.50;;;24.95;47.66
3544;BME280;1786;52.870;9.578;2022-11-15T15:18:04;99806.78;;;25.42;47.16
3544;BME280;1786;52.870;9.578;2022-11-15T15:20:32;99803.59;;;25.65;46.97
3544;BME280;1786;52.870;9.578;2022-11-15T15:22:58;99796.59;;;25.51;46.90
3544;BME280;1786;52.870;9.578;2022-11-15T15:27:55;99788.59;;;24.91;47.80
3544;BME280;1786;52.870;9.578;2022-11-15T15:30:22;99785.72;;;24.72;47.99
3544;BME280;1786;52.870;9.578;2022-11-15T15:32:50;99782.69;;;23.81;49.47
3544;BME280;1786;52.870;9.578;2022-11-15T15:35:17;99774.44;;;24.09;49.30
3544;BME280;1786;52.870;9.578;2022-11-15T15:37:47;99772.41;;;24.51;48.45
3544;BME280;1786;52.870;9.578;2022-11-15T15:40:16;99775.13;;;24.51;48.89
3544;BME280;1786;52.870;9.578;2022-11-15T15:42:43;99763.69;;;24.42;48.94
3544;BME280;1786;52.870;9.578;2022-11-15T15:45:10;99763.63;;;23.95;49.84
3544;BME280;1786;52.870;9.578;2022-11-15T15:47:38;99761.97;;;24.01;49.27
3544;BME280;1786;52.870;9.578;2022-11-15T15:50:20;99765.25;;;23.77;49.65
3544;BME280;1786;52.870;9.578;2022-11-15T15:52:47;99771.47;;;23.84;49.75
3544;BME280;1786;52.870;9.578;2022-11-15T15:55:14;99771.66;;;23.75;50.38
3544;BME280;1786;52.870;9.578;2022-11-15T15:57:41;99766.69;;;23.72;50.12
3544;BME280;1786;52.870;9.578;2022-11-15T16:00:09;99773.34;;;23.35;50.76
3544;BME280;1786;52.870;9.578;2022-11-15T16:02:39;99765.19;;;23.70;50.33
3544;BME280;1786;52.870;9.578;2022-11-15T16:05:07;99763.78;;;23.74;50.43
3544;BME280;1786;52.870;9.578;2022-11-15T16:07:34;99776.13;;;23.55;50.58
3544;BME280;1786;52.870;9.578;2022-11-15T16:10:02;99776.81;;;23.70;50.33
3544;BME280;1786;52.870;9.578;2022-11-15T16:12:31;99765.28;;;24.03;49.84
3544;BME280;1786;52.870;9.578;2022-11-15T16:15:01;99764.91;;;24.19;49.57
3544;BME280;1786;52.870;9.578;2022-11-15T16:17:33;99764.97;;;24.59;48.62
3544;BME280;1786;52.870;9.578;2022-11-15T16:20:01;99771.16;;;24.80;48.33
3544;BME280;1786;52.870;9.578;2022-11-15T16:22:28;99758.31;;;24.62;48.91
3544;BME280;1786;52.870;9.578;2022-11-15T16:24:56;99756.41;;;24.69;48.71
3544;BME280;1786;52.870;9.578;2022-11-15T16:27:24;99760.13;;;24.81;48.66
3544;BME280;1786;52.870;9.578;2022-11-15T16:29:50;99759.09;;;24.36;49.40
3544;BME280;1786;52.870;9.578;2022-11-15T16:32:17;99748.31;;;24.49;49.25
3544;BME280;1786;52.870;9.578;2022-11-15T16:34:44;99742.91;;;24.49;48.69